createdAt,value
2022-10-19T00:02:10.254Z,20.25
2022-10-19T00:06:27.034Z,18.85
2022-10-19T00:10:28.866Z,20.48
2022-10-19T00:14:30.528Z,18.48
2022-10-19T00:18:32.190Z,19.20
2022-10-19T00:22:34.080Z,18.08
2022-10-19T00:26:36.835Z,17.60
2022-10-19T00:30:38.678Z,15.15
2022-10-19T00:34:40.344Z,16.08
2022-10-19T00:38:43.018Z,13.85
2022-10-19T00:42:44.575Z,12.75
2022-10-19T00:46:51.804Z,13.00
2022-10-19T00:50:56.286Z,12.70
2022-10-19T00:54:59.428Z,13.57
2022-10-19T00:59:04.420Z,14.07
2022-10-19T01:03:08.210Z,11.63
2022-10-19T01:07:10.589Z,11.38
2022-10-19T01:11:26.889Z,11.95
2022-10-19T01:15:57.648Z,11.95
2022-10-19T01:20:08.297Z,12.43
2022-10-19T01:24:40.556Z,12.05
2022-10-19T01:28:54.951Z,11.90
2022-10-19T01:33:09.698Z,12.02
2022-10-19T01:37:21.691Z,12.07
2022-10-19T01:41:38.032Z,10.70
2022-10-19T01:46:21.003Z,11.05
2022-10-19T01:50:31.723Z,11.32
2022-10-19T01:54:40.302Z,12.43
2022-10-19T01:58:43.882Z,11.02
2022-10-19T02:02:48.743Z,9.98
2022-10-19T02:06:55.215Z,12.15
2022-10-19T02:10:58.899Z,10.18
2022-10-19T02:15:06.439Z,10.77
2022-10-19T02:19:09.875Z,11.77
2022-10-19T02:23:13.479Z,10.70
2022-10-19T02:27:15.549Z,12.40
2022-10-19T02:31:17.525Z,10.80
2022-10-19T02:35:19.292Z,10.83
2022-10-19T02:39:21.727Z,11.55
2022-10-19T02:43:26.118Z,12.18
2022-10-19T02:47:32.537Z,12.95
2022-10-19T02:51:37.241Z,13.43
2022-10-19T02:55:42.229Z,13.25
2022-10-19T02:59:44.102Z,14.07
2022-10-19T03:03:46.486Z,13.40
2022-10-19T03:07:48.084Z,12.50
2022-10-19T03:11:49.692Z,11.65
2022-10-19T03:15:51.382Z,11.50
2022-10-19T03:19:53.012Z,12.10
2022-10-19T03:23:54.710Z,10.65
2022-10-19T03:27:56.383Z,10.15
2022-10-19T03:32:33.242Z,11.48
2022-10-19T03:36:40.848Z,10.52
2022-10-19T03:40:42.494Z,10.63
2022-10-19T03:44:44.102Z,9.40
2022-10-19T03:48:46.124Z,10.05
2022-10-19T03:52:49.655Z,10.80
2022-10-19T03:56:51.322Z,9.98
2022-10-19T04:00:53.067Z,10.40
2022-10-19T04:04:54.626Z,9.70
2022-10-19T04:08:57.055Z,9.05
2022-10-19T04:13:17.355Z,8.95
2022-10-19T04:17:19.929Z,8.02
2022-10-19T04:21:27.631Z,9.05
2022-10-19T04:25:29.162Z,9.15
2022-10-19T04:29:30.967Z,8.55
2022-10-19T04:33:33.823Z,9.73
2022-10-19T04:41:38.278Z,9.45
2022-10-19T04:45:39.872Z,10.75
2022-10-19T04:49:41.400Z,8.70
2022-10-19T04:53:44.558Z,9.38
2022-10-19T04:57:46.100Z,10.30
2022-10-19T05:01:47.663Z,9.68
2022-10-19T05:05:49.243Z,10.15
2022-10-19T05:09:51.058Z,10.35
2022-10-19T05:13:52.859Z,9.57
2022-10-19T05:17:55.108Z,13.30
2022-10-19T05:21:56.894Z,13.38
2022-10-19T05:26:17.526Z,14.20
2022-10-19T05:30:22.019Z,13.45
2022-10-19T05:34:23.580Z,12.88
2022-10-19T05:38:25.134Z,13.80
2022-10-19T05:42:26.706Z,13.55
2022-10-19T05:46:29.830Z,13.18
2022-10-19T05:50:31.433Z,13.98
2022-10-19T05:54:33.517Z,14.57
2022-10-19T05:58:35.985Z,15.63
2022-10-19T06:02:37.703Z,14.73
2022-10-19T06:06:39.734Z,13.27
2022-10-19T06:10:41.348Z,13.77
2022-10-19T06:14:43.110Z,14.10
2022-10-19T06:18:45.354Z,13.85
2022-10-19T06:22:46.912Z,13.97
2022-10-19T06:26:48.606Z,14.40
2022-10-19T06:30:50.257Z,12.65
2022-10-19T06:34:55.728Z,12.57
2022-10-19T06:39:00.024Z,13.40
2022-10-19T06:43:02.166Z,13.93
2022-10-19T06:47:03.699Z,14.17
2022-10-19T06:51:10.737Z,12.60
2022-10-19T06:55:17.181Z,12.70
2022-10-19T06:59:21.932Z,11.55
2022-10-19T07:03:24.779Z,12.18
2022-10-19T07:11:31.753Z,13.02
2022-10-19T07:15:33.407Z,10.90
2022-10-19T07:19:35.417Z,11.27
2022-10-19T07:23:38.483Z,12.45
2022-10-19T07:27:40.548Z,13.23
2022-10-19T07:31:47.568Z,12.50
2022-10-19T07:35:49.343Z,12.07
2022-10-19T07:39:50.945Z,11.68
2022-10-19T07:43:53.219Z,11.70
2022-10-19T07:47:54.852Z,11.50
2022-10-19T07:51:56.482Z,10.25
2022-10-19T07:56:04.171Z,11.73
2022-10-19T08:00:06.401Z,11.20
2022-10-19T08:08:36.319Z,12.77
2022-10-19T08:12:38.264Z,10.25
2022-10-19T08:16:41.754Z,10.95
2022-10-19T08:20:44.314Z,11.18
2022-10-19T08:24:46.091Z,10.52
2022-10-19T08:28:47.773Z,9.80
2022-10-19T08:32:49.384Z,10.15
2022-10-19T08:36:50.928Z,11.20
2022-10-19T08:40:54.034Z,9.23
2022-10-19T08:45:26.137Z,9.57
2022-10-19T08:49:29.890Z,9.88
2022-10-19T08:53:45.624Z,10.10
2022-10-19T08:58:10.658Z,10.38
2022-10-19T09:02:30.264Z,9.70
2022-10-19T09:06:43.403Z,9.32
2022-10-19T09:10:49.355Z,9.65
2022-10-19T09:14:59.408Z,8.82
2022-10-19T09:19:01.031Z,8.75
2022-10-19T09:23:26.146Z,9.05
2022-10-19T09:27:39.332Z,9.38
2022-10-19T09:31:43.516Z,9.77
2022-10-19T09:35:46.785Z,9.23
2022-10-19T09:39:53.938Z,9.27
2022-10-19T09:43:57.272Z,9.82
2022-10-19T09:48:07.155Z,7.18
2022-10-19T09:52:25.043Z,9.43
2022-10-19T09:56:28.171Z,9.70
2022-10-19T10:00:44.911Z,10.52
2022-10-19T10:04:54.622Z,9.48
2022-10-19T10:08:59.230Z,10.70
2022-10-19T10:13:01.818Z,10.40
2022-10-19T10:17:19.451Z,9.02
2022-10-19T10:21:32.457Z,10.05
2022-10-19T10:25:36.659Z,8.75
2022-10-19T10:29:39.376Z,8.73
2022-10-19T10:37:47.795Z,8.07
2022-10-19T10:41:49.619Z,8.95
2022-10-19T10:45:54.275Z,8.18
2022-10-19T10:50:01.579Z,53.55
2022-10-19T10:54:18.122Z,11.27
2022-10-19T10:58:34.304Z,15.18
2022-10-19T11:02:51.609Z,7.82
2022-10-19T11:06:57.142Z,8.38
2022-10-19T11:11:01.512Z,9.13
2022-10-19T11:15:12.179Z,8.43
2022-10-19T11:19:36.768Z,8.63
2022-10-19T11:23:57.604Z,7.38
2022-10-19T11:28:23.108Z,5.75
2022-10-19T11:32:38.164Z,5.75
2022-10-19T11:36:54.902Z,5.05
2022-10-19T11:41:27.222Z,4.80
2022-10-19T11:45:58.655Z,4.07
2022-10-19T11:50:17.559Z,4.90
2022-10-19T11:54:25.948Z,4.47
2022-10-19T11:58:45.671Z,3.90
2022-10-19T12:03:08.978Z,4.50
2022-10-19T12:07:43.592Z,4.60
2022-10-19T12:11:47.711Z,5.13
2022-10-19T12:15:55.365Z,4.60
2022-10-19T12:20:02.410Z,4.22
2022-10-19T12:24:11.299Z,4.32
2022-10-19T12:28:22.383Z,5.40
2022-10-19T12:32:27.554Z,5.38
2022-10-19T12:36:52.582Z,5.18
2022-10-19T12:41:08.073Z,5.35
2022-10-19T12:45:25.234Z,4.25
2022-10-19T12:49:26.828Z,4.38
2022-10-19T12:53:36.218Z,4.65
2022-10-19T12:57:39.896Z,5.15
2022-10-19T13:01:44.456Z,4.70
2022-10-19T13:05:59.428Z,4.72
2022-10-19T13:10:03.979Z,5.50
2022-10-19T13:14:14.962Z,4.82
2022-10-19T13:18:54.897Z,5.07
2022-10-19T13:22:59.572Z,6.43
2022-10-19T13:27:04.723Z,5.80
2022-10-19T13:31:23.794Z,6.13
2022-10-19T13:35:30.280Z,5.65
2022-10-19T13:39:39.527Z,5.43
2022-10-19T13:44:00.812Z,5.40
2022-10-19T13:48:17.800Z,6.07
2022-10-19T13:52:44.128Z,5.20
2022-10-19T13:57:01.127Z,5.35
2022-10-19T14:01:28.401Z,5.13
2022-10-19T14:05:42.409Z,4.90
2022-10-19T14:10:15.816Z,4.65
2022-10-19T14:14:20.872Z,5.15
2022-10-19T14:18:28.992Z,4.97
2022-10-19T14:22:36.329Z,4.50
2022-10-19T14:26:38.175Z,3.58
2022-10-19T14:30:39.955Z,4.43
2022-10-19T14:34:43.535Z,4.50
2022-10-19T14:38:46.798Z,4.45
2022-10-19T14:42:48.904Z,4.93
2022-10-19T14:46:50.476Z,4.23
2022-10-19T14:50:57.629Z,5.32
2022-10-19T14:55:02.584Z,4.90
2022-10-19T14:59:15.557Z,3.90
2022-10-19T15:07:40.986Z,4.55
2022-10-19T15:11:46.869Z,4.63
2022-10-19T15:15:52.086Z,4.00
2022-10-19T15:19:56.320Z,3.90
2022-10-19T15:24:21.234Z,4.43
2022-10-19T15:28:41.664Z,4.10
2022-10-19T15:32:49.062Z,4.35
2022-10-19T15:36:56.146Z,5.10
2022-10-19T15:41:00.043Z,4.45
2022-10-19T15:45:02.369Z,5.32
2022-10-19T15:49:47.008Z,5.13
2022-10-19T15:53:48.556Z,4.03
2022-10-19T15:57:59.003Z,4.50
2022-10-19T16:02:00.536Z,4.28
2022-10-19T16:06:02.832Z,6.00
2022-10-19T16:10:05.038Z,5.07
2022-10-19T16:14:06.694Z,5.45
2022-10-19T16:18:09.785Z,5.72
2022-10-19T16:22:13.490Z,5.60
2022-10-19T16:26:16.872Z,6.18
2022-10-19T16:30:18.822Z,5.82
2022-10-19T16:34:20.384Z,5.47
2022-10-19T16:38:22.055Z,6.28
2022-10-19T16:42:29.634Z,7.22
2022-10-19T16:46:32.231Z,7.30
2022-10-19T16:50:33.849Z,7.55
2022-10-19T16:54:35.998Z,7.03
2022-10-19T16:58:38.159Z,6.90
2022-10-19T17:02:41.998Z,7.60
2022-10-19T17:06:46.299Z,7.82
2022-10-19T17:14:51.394Z,7.60
2022-10-19T17:18:58.807Z,8.77
2022-10-19T17:23:00.408Z,9.73
2022-10-19T17:27:05.039Z,8.55
2022-10-19T17:31:14.208Z,9.77
2022-10-19T17:35:15.887Z,11.32
2022-10-19T17:39:20.881Z,11.02
2022-10-19T17:43:24.713Z,9.25
2022-10-19T17:47:26.383Z,10.57
2022-10-19T17:51:30.744Z,9.52
2022-10-19T17:55:34.402Z,9.65
2022-10-19T17:59:52.060Z,10.02
2022-10-19T18:03:55.206Z,9.68
2022-10-19T18:07:57.175Z,10.40
2022-10-19T18:12:02.279Z,9.70
2022-10-19T18:16:09.488Z,10.80
2022-10-19T18:20:13.008Z,11.82
2022-10-19T18:24:19.730Z,10.77
2022-10-19T18:28:21.780Z,9.77
2022-10-19T18:32:23.398Z,10.83
2022-10-19T18:36:25.246Z,9.90
2022-10-19T18:40:26.945Z,10.95
2022-10-19T18:44:32.519Z,10.50
2022-10-19T18:48:37.908Z,9.95
2022-10-19T18:52:40.487Z,9.75
2022-10-19T18:56:42.144Z,10.10
2022-10-19T19:00:45.659Z,10.60
2022-10-19T19:04:47.668Z,10.32
2022-10-19T19:08:49.477Z,10.90
2022-10-19T19:12:51.434Z,10.55
2022-10-19T19:16:53.199Z,10.57
2022-10-19T19:20:54.816Z,12.23
2022-10-19T19:24:56.584Z,10.07
2022-10-19T19:28:58.841Z,10.52
2022-10-19T19:33:00.467Z,10.03
2022-10-19T19:37:03.279Z,10.32
2022-10-19T19:41:08.099Z,12.15
2022-10-19T19:45:10.026Z,10.80
2022-10-19T19:49:12.186Z,11.48
2022-10-19T19:53:13.745Z,11.27
2022-10-19T19:57:15.330Z,12.55
2022-10-19T20:01:19.935Z,11.52
2022-10-19T20:05:23.171Z,13.13
2022-10-19T20:09:26.763Z,13.43
2022-10-19T20:13:28.559Z,11.77
2022-10-19T20:17:30.107Z,12.65
2022-10-19T20:21:33.749Z,13.13
2022-10-19T20:25:38.399Z,13.02
2022-10-19T20:29:39.960Z,12.65
2022-10-19T20:33:43.656Z,12.95
2022-10-19T20:37:49.127Z,13.65
2022-10-19T20:41:50.766Z,14.20
2022-10-19T20:45:52.301Z,13.75
2022-10-19T20:49:54.160Z,12.70
2022-10-19T20:53:57.367Z,16.83
2022-10-19T20:57:58.923Z,13.82
2022-10-19T21:02:00.535Z,12.00
2022-10-19T21:06:04.221Z,12.63
2022-10-19T21:10:06.044Z,14.02
2022-10-19T21:14:11.824Z,19.40
2022-10-19T21:18:14.095Z,13.65
2022-10-19T21:22:18.733Z,14.65
2022-10-19T21:26:25.640Z,15.38
2022-10-19T21:30:28.059Z,13.98
2022-10-19T21:34:31.109Z,15.07
2022-10-19T21:42:34.671Z,13.55
2022-10-19T21:46:36.607Z,14.25
2022-10-19T21:50:38.244Z,12.60
2022-10-19T21:54:40.027Z,12.90
2022-10-19T21:58:50.145Z,13.15
2022-10-19T22:02:51.965Z,13.05
2022-10-19T22:06:53.690Z,13.95
2022-10-19T22:10:55.369Z,12.82
2022-10-19T22:14:56.941Z,12.60
2022-10-19T22:18:58.737Z,12.02
2022-10-19T22:23:00.337Z,12.77
2022-10-19T22:27:02.028Z,12.00
2022-10-19T22:31:03.678Z,13.13
2022-10-19T22:35:06.096Z,12.95
2022-10-19T22:39:08.345Z,13.73
2022-10-19T22:43:09.926Z,13.97
2022-10-19T22:47:11.475Z,13.13
2022-10-19T22:51:13.145Z,13.55
2022-10-19T22:55:14.745Z,13.68
2022-10-19T22:59:16.360Z,13.45
2022-10-19T23:03:17.938Z,14.18
2022-10-19T23:07:19.660Z,12.70
2022-10-19T23:11:21.371Z,14.68
2022-10-19T23:15:22.993Z,13.98
2022-10-19T23:19:24.595Z,13.63
2022-10-19T23:23:27.141Z,12.77
2022-10-19T23:27:28.656Z,12.95
2022-10-19T23:31:30.654Z,14.00
2022-10-19T23:35:32.199Z,13.23
2022-10-19T23:39:33.739Z,14.85
2022-10-19T23:47:38.435Z,13.32
2022-10-19T23:51:40.192Z,13.17
2022-10-19T23:55:41.780Z,13.57
2022-10-19T23:59:43.459Z,14.07
